sensor_id;sensor_type;location;lat;lon;timestamp;P1;durP1;ratioP1;P2;durP2;ratioP2
21786;SDS011;11055;50.870;4.316;2023-05-19T00:01:14;8.95;;;5.57;;
21786;SDS011;11055;50.870;4.316;2023-05-19T00:03:48;10.98;;;6.00;;
21786;SDS011;11055;50.870;4.316;2023-05-19T00:06:16;12.85;;;6.05;;
21786;SDS011;11055;50.870;4.316;2023-05-19T00:08:46;11.02;;;5.72;;
21786;SDS011;11055;50.870;4.316;2023-05-19T00:11:13;10.20;;;5.78;;
21786;SDS011;11055;50.870;4.316;2023-05-19T00:13:39;10.65;;;6.10;;
21786;SDS011;11055;50.870;4.316;2023-05-19T00:16:05;11.00;;;6.20;;
21786;SDS011;11055;50.870;4.316;2023-05-19T00:18:31;11.40;;;6.15;;
21786;SDS011;11055;50.870;4.316;2023-05-19T00:20:57;10.88;;;6.25;;
21786;SDS011;11055;50.870;4.316;2023-05-19T00:23:23;10.73;;;6.70;;
21786;SDS011;11055;50.870;4.316;2023-05-19T00:25:48;12.68;;;6.53;;
21786;SDS011;11055;50.870;4.316;2023-05-19T00:28:14;11.68;;;6.53;;
21786;SDS011;11055;50.870;4.316;2023-05-19T00:30:40;10.80;;;6.50;;
21786;SDS011;11055;50.870;4.316;2023-05-19T00:33:05;10.25;;;6.32;;
21786;SDS011;11055;50.870;4.316;2023-05-19T00:35:31;9.70;;;6.50;;
21786;SDS011;11055;50.870;4.316;2023-05-19T00:37:57;9.43;;;6.20;;
21786;SDS011;11055;50.870;4.316;2023-05-19T00:40:22;13.00;;;6.82;;
21786;SDS011;11055;50.870;4.316;2023-05-19T00:42:48;13.77;;;6.68;;
21786;SDS011;11055;50.870;4.316;2023-05-19T00:45:14;10.15;;;6.68;;
21786;SDS011;11055;50.870;4.316;2023-05-19T00:47:40;15.35;;;7.50;;
21786;SDS011;11055;50.870;4.316;2023-05-19T00:50:05;10.73;;;7.03;;
21786;SDS011;11055;50.870;4.316;2023-05-19T00:52:31;11.95;;;7.15;;
21786;SDS011;11055;50.870;4.316;2023-05-19T00:54:57;11.38;;;6.72;;
21786;SDS011;11055;50.870;4.316;2023-05-19T00:57:23;11.23;;;6.68;;
21786;SDS011;11055;50.870;4.316;2023-05-19T00:59:51;13.45;;;6.90;;
21786;SDS011;11055;50.870;4.316;2023-05-19T01:02:16;11.40;;;7.30;;
21786;SDS011;11055;50.870;4.316;2023-05-19T01:04:42;11.25;;;7.82;;
21786;SDS011;11055;50.870;4.316;2023-05-19T01:07:09;14.98;;;7.40;;
21786;SDS011;11055;50.870;4.316;2023-05-19T01:09:36;10.20;;;7.43;;
21786;SDS011;11055;50.870;4.316;2023-05-19T01:12:02;14.43;;;7.72;;
21786;SDS011;11055;50.870;4.316;2023-05-19T01:14:28;12.10;;;7.47;;
21786;SDS011;11055;50.870;4.316;2023-05-19T01:17:06;11.90;;;6.85;;
21786;SDS011;11055;50.870;4.316;2023-05-19T01:30:57;14.52;;;7.13;;
21786;SDS011;11055;50.870;4.316;2023-05-19T01:33:24;12.65;;;7.57;;
21786;SDS011;11055;50.870;4.316;2023-05-19T01:35:52;10.38;;;7.57;;
21786;SDS011;11055;50.870;4.316;2023-05-19T01:38:20;13.75;;;8.23;;
21786;SDS011;11055;50.870;4.316;2023-05-19T01:40:46;11.13;;;7.63;;
21786;SDS011;11055;50.870;4.316;2023-05-19T01:43:15;11.70;;;7.45;;
21786;SDS011;11055;50.870;4.316;2023-05-19T01:45:42;12.55;;;8.32;;
21786;SDS011;11055;50.870;4.316;2023-05-19T01:48:09;13.73;;;7.75;;
21786;SDS011;11055;50.870;4.316;2023-05-19T01:50:36;11.38;;;7.43;;
21786;SDS011;11055;50.870;4.316;2023-05-19T01:53:01;13.30;;;7.80;;
21786;SDS011;11055;50.870;4.316;2023-05-19T01:55:27;13.88;;;8.38;;
21786;SDS011;11055;50.870;4.316;2023-05-19T02:00:51;12.52;;;8.30;;
21786;SDS011;11055;50.870;4.316;2023-05-19T02:13:57;11.77;;;8.60;;
21786;SDS011;11055;50.870;4.316;2023-05-19T02:16:27;16.67;;;8.77;;
21786;SDS011;11055;50.870;4.316;2023-05-19T02:18:53;12.50;;;8.10;;
21786;SDS011;11055;50.870;4.316;2023-05-19T02:21:20;11.50;;;7.88;;
21786;SDS011;11055;50.870;4.316;2023-05-19T02:23:46;15.73;;;7.72;;
21786;SDS011;11055;50.870;4.316;2023-05-19T02:26:12;14.32;;;8.73;;
21786;SDS011;11055;50.870;4.316;2023-05-19T02:28:38;12.10;;;7.65;;
21786;SDS011;11055;50.870;4.316;2023-05-19T02:31:03;11.77;;;8.25;;
21786;SDS011;11055;50.870;4.316;2023-05-19T02:33:32;12.25;;;8.27;;
21786;SDS011;11055;50.870;4.316;2023-05-19T02:35:58;11.40;;;8.10;;
21786;SDS011;11055;50.870;4.316;2023-05-19T02:38:24;15.48;;;8.13;;
21786;SDS011;11055;50.870;4.316;2023-05-19T02:40:50;9.80;;;7.57;;
21786;SDS011;11055;50.870;4.316;2023-05-19T02:43:17;10.52;;;8.52;;
21786;SDS011;11055;50.870;4.316;2023-05-19T02:45:42;14.07;;;8.68;;
21786;SDS011;11055;50.870;4.316;2023-05-19T02:48:08;10.88;;;7.95;;
21786;SDS011;11055;50.870;4.316;2023-05-19T02:50:34;14.80;;;8.63;;
21786;SDS011;11055;50.870;4.316;2023-05-19T02:53:00;12.90;;;8.30;;
21786;SDS011;11055;50.870;4.316;2023-05-19T02:55:26;14.98;;;8.98;;
21786;SDS011;11055;50.870;4.316;2023-05-19T02:57:52;10.73;;;8.57;;
21786;SDS011;11055;50.870;4.316;2023-05-19T03:00:18;13.18;;;8.48;;
21786;SDS011;11055;50.870;4.316;2023-05-19T03:02:44;15.75;;;8.68;;
21786;SDS011;11055;50.870;4.316;2023-05-19T03:05:09;15.25;;;8.77;;
21786;SDS011;11055;50.870;4.316;2023-05-19T03:07:35;13.85;;;8.38;;
21786;SDS011;11055;50.870;4.316;2023-05-19T03:10:01;11.32;;;8.70;;
21786;SDS011;11055;50.870;4.316;2023-05-19T03:12:31;14.15;;;8.32;;
21786;SDS011;11055;50.870;4.316;2023-05-19T03:14:57;16.17;;;8.60;;
21786;SDS011;11055;50.870;4.316;2023-05-19T03:17:23;13.85;;;9.00;;
21786;SDS011;11055;50.870;4.316;2023-05-19T03:19:49;10.73;;;8.30;;
21786;SDS011;11055;50.870;4.316;2023-05-19T03:22:16;12.25;;;8.77;;
21786;SDS011;11055;50.870;4.316;2023-05-19T03:24:42;12.88;;;8.13;;
21786;SDS011;11055;50.870;4.316;2023-05-19T03:27:08;11.90;;;8.27;;
21786;SDS011;11055;50.870;4.316;2023-05-19T03:29:35;12.82;;;8.77;;
21786;SDS011;11055;50.870;4.316;2023-05-19T03:32:01;15.88;;;9.13;;
21786;SDS011;11055;50.870;4.316;2023-05-19T03:34:26;15.30;;;9.38;;
21786;SDS011;11055;50.870;4.316;2023-05-19T03:36:52;13.85;;;8.55;;
21786;SDS011;11055;50.870;4.316;2023-05-19T03:39:18;12.00;;;8.73;;
21786;SDS011;11055;50.870;4.316;2023-05-19T03:41:43;12.60;;;8.80;;
21786;SDS011;11055;50.870;4.316;2023-05-19T03:44:09;14.10;;;9.20;;
21786;SDS011;11055;50.870;4.316;2023-05-19T03:46:35;10.10;;;8.13;;
21786;SDS011;11055;50.870;4.316;2023-05-19T03:49:01;11.70;;;8.65;;
21786;SDS011;11055;50.870;4.316;2023-05-19T03:51:26;15.98;;;8.75;;
21786;SDS011;11055;50.870;4.316;2023-05-19T03:53:53;16.77;;;8.93;;
21786;SDS011;11055;50.870;4.316;2023-05-19T03:56:19;13.10;;;9.32;;
21786;SDS011;11055;50.870;4.316;2023-05-19T03:58:50;12.68;;;8.85;;
21786;SDS011;11055;50.870;4.316;2023-05-19T04:01:16;14.02;;;9.05;;
21786;SDS011;11055;50.870;4.316;2023-05-19T04:03:41;11.07;;;9.02;;
21786;SDS011;11055;50.870;4.316;2023-05-19T04:06:07;14.45;;;9.43;;
21786;SDS011;11055;50.870;4.316;2023-05-19T04:08:33;13.60;;;9.88;;
21786;SDS011;11055;50.870;4.316;2023-05-19T04:10:58;18.05;;;9.43;;
21786;SDS011;11055;50.870;4.316;2023-05-19T04:13:24;15.35;;;9.07;;
21786;SDS011;11055;50.870;4.316;2023-05-19T04:15:49;17.83;;;9.45;;
21786;SDS011;11055;50.870;4.316;2023-05-19T04:18:15;15.00;;;10.27;;
21786;SDS011;11055;50.870;4.316;2023-05-19T04:20:41;14.18;;;10.02;;
21786;SDS011;11055;50.870;4.316;2023-05-19T04:23:06;16.02;;;10.40;;
21786;SDS011;11055;50.870;4.316;2023-05-19T04:25:32;16.25;;;9.75;;
21786;SDS011;11055;50.870;4.316;2023-05-19T04:28:00;16.15;;;10.30;;
21786;SDS011;11055;50.870;4.316;2023-05-19T04:30:27;15.57;;;9.68;;
21786;SDS011;11055;50.870;4.316;2023-05-19T04:32:53;13.23;;;10.10;;
21786;SDS011;11055;50.870;4.316;2023-05-19T04:35:19;16.95;;;10.45;;
21786;SDS011;11055;50.870;4.316;2023-05-19T04:37:45;16.08;;;10.40;;
21786;SDS011;11055;50.870;4.316;2023-05-19T04:40:13;17.83;;;10.55;;
21786;SDS011;11055;50.870;4.316;2023-05-19T04:42:41;12.73;;;10.02;;
21786;SDS011;11055;50.870;4.316;2023-05-19T04:45:09;16.20;;;10.77;;
21786;SDS011;11055;50.870;4.316;2023-05-19T04:47:38;14.68;;;10.38;;
21786;SDS011;11055;50.870;4.316;2023-05-19T04:50:04;20.25;;;10.63;;
21786;SDS011;11055;50.870;4.316;2023-05-19T04:52:31;18.10;;;10.48;;
21786;SDS011;11055;50.870;4.316;2023-05-19T04:54:57;14.13;;;10.35;;
21786;SDS011;11055;50.870;4.316;2023-05-19T04:57:23;20.55;;;10.60;;
21786;SDS011;11055;50.870;4.316;2023-05-19T04:59:48;19.00;;;11.15;;
21786;SDS011;11055;50.870;4.316;2023-05-19T05:02:14;14.20;;;9.70;;
21786;SDS011;11055;50.870;4.316;2023-05-19T05:04:40;17.90;;;10.25;;
21786;SDS011;11055;50.870;4.316;2023-05-19T05:07:08;13.45;;;10.27;;
21786;SDS011;11055;50.870;4.316;2023-05-19T05:09:35;16.88;;;10.20;;
21786;SDS011;11055;50.870;4.316;2023-05-19T05:12:01;13.93;;;10.50;;
21786;SDS011;11055;50.870;4.316;2023-05-19T05:14:28;16.08;;;10.52;;
21786;SDS011;11055;50.870;4.316;2023-05-19T05:16:54;15.25;;;10.23;;
21786;SDS011;11055;50.870;4.316;2023-05-19T05:19:20;17.77;;;10.57;;
21786;SDS011;11055;50.870;4.316;2023-05-19T05:21:46;16.73;;;10.35;;
21786;SDS011;11055;50.870;4.316;2023-05-19T05:24:13;13.60;;;10.65;;
21786;SDS011;11055;50.870;4.316;2023-05-19T05:26:39;14.55;;;10.18;;
21786;SDS011;11055;50.870;4.316;2023-05-19T05:29:04;15.65;;;10.35;;
21786;SDS011;11055;50.870;4.316;2023-05-19T05:31:30;19.67;;;10.70;;
21786;SDS011;11055;50.870;4.316;2023-05-19T05:33:56;14.15;;;10.32;;
21786;SDS011;11055;50.870;4.316;2023-05-19T05:36:22;14.20;;;10.27;;
21786;SDS011;11055;50.870;4.316;2023-05-19T05:38:48;14.73;;;10.40;;
21786;SDS011;11055;50.870;4.316;2023-05-19T05:41:14;16.25;;;9.93;;
21786;SDS011;11055;50.870;4.316;2023-05-19T05:43:39;15.40;;;10.13;;
21786;SDS011;11055;50.870;4.316;2023-05-19T05:46:05;13.15;;;10.90;;
21786;SDS011;11055;50.870;4.316;2023-05-19T05:48:31;15.93;;;11.40;;
21786;SDS011;11055;50.870;4.316;2023-05-19T05:50:57;12.07;;;10.05;;
21786;SDS011;11055;50.870;4.316;2023-05-19T05:53:24;13.75;;;9.52;;
21786;SDS011;11055;50.870;4.316;2023-05-19T05:55:51;16.05;;;10.90;;
21786;SDS011;11055;50.870;4.316;2023-05-19T05:58:19;14.85;;;9.93;;
21786;SDS011;11055;50.870;4.316;2023-05-19T06:00:45;14.70;;;10.05;;
21786;SDS011;11055;50.870;4.316;2023-05-19T06:03:13;13.10;;;9.93;;
21786;SDS011;11055;50.870;4.316;2023-05-19T06:05:40;16.40;;;10.27;;
21786;SDS011;11055;50.870;4.316;2023-05-19T06:08:06;13.30;;;9.70;;
21786;SDS011;11055;50.870;4.316;2023-05-19T06:10:31;18.40;;;10.25;;
21786;SDS011;11055;50.870;4.316;2023-05-19T06:12:59;15.77;;;10.13;;
21786;SDS011;11055;50.870;4.316;2023-05-19T06:15:25;17.92;;;10.38;;
21786;SDS011;11055;50.870;4.316;2023-05-19T06:17:51;14.00;;;11.13;;
21786;SDS011;11055;50.870;4.316;2023-05-19T06:20:16;19.20;;;10.93;;
21786;SDS011;11055;50.870;4.316;2023-05-19T06:22:42;15.60;;;10.82;;
21786;SDS011;11055;50.870;4.316;2023-05-19T06:25:08;17.55;;;10.05;;
21786;SDS011;11055;50.870;4.316;2023-05-19T06:27:34;16.77;;;10.13;;
21786;SDS011;11055;50.870;4.316;2023-05-19T06:30:00;15.48;;;10.20;;
21786;SDS011;11055;50.870;4.316;2023-05-19T06:32:26;14.27;;;10.00;;
21786;SDS011;11055;50.870;4.316;2023-05-19T06:34:53;18.45;;;11.70;;
21786;SDS011;11055;50.870;4.316;2023-05-19T06:37:20;15.48;;;10.80;;
21786;SDS011;11055;50.870;4.316;2023-05-19T06:39:50;16.65;;;11.57;;
21786;SDS011;11055;50.870;4.316;2023-05-19T06:42:20;15.85;;;10.90;;
21786;SDS011;11055;50.870;4.316;2023-05-19T06:44:50;15.98;;;10.57;;
21786;SDS011;11055;50.870;4.316;2023-05-19T06:47:16;14.43;;;10.63;;
21786;SDS011;11055;50.870;4.316;2023-05-19T06:49:45;17.67;;;11.10;;
21786;SDS011;11055;50.870;4.316;2023-05-19T06:52:18;16.55;;;11.05;;
21786;SDS011;11055;50.870;4.316;2023-05-19T06:54:45;15.95;;;10.65;;
21786;SDS011;11055;50.870;4.316;2023-05-19T06:57:10;12.80;;;9.80;;
21786;SDS011;11055;50.870;4.316;2023-05-19T06:59:36;14.25;;;10.20;;
21786;SDS011;11055;50.870;4.316;2023-05-19T07:02:04;16.50;;;10.25;;
21786;SDS011;11055;50.870;4.316;2023-05-19T07:04:30;17.60;;;10.15;;
21786;SDS011;11055;50.870;4.316;2023-05-19T07:06:56;14.35;;;10.75;;
21786;SDS011;11055;50.870;4.316;2023-05-19T07:09:22;13.15;;;10.00;;
21786;SDS011;11055;50.870;4.316;2023-05-19T07:11:48;15.27;;;10.77;;
21786;SDS011;11055;50.870;4.316;2023-05-19T07:14:14;15.00;;;10.50;;
21786;SDS011;11055;50.870;4.316;2023-05-19T07:16:39;21.27;;;12.55;;
21786;SDS011;11055;50.870;4.316;2023-05-19T07:19:05;14.65;;;10.27;;
21786;SDS011;11055;50.870;4.316;2023-05-19T07:21:31;17.63;;;10.43;;
21786;SDS011;11055;50.870;4.316;2023-05-19T07:23:57;16.17;;;10.40;;
21786;SDS011;11055;50.870;4.316;2023-05-19T07:26:22;15.82;;;9.70;;
21786;SDS011;11055;50.870;4.316;2023-05-19T07:28:48;14.13;;;9.25;;
21786;SDS011;11055;50.870;4.316;2023-05-19T07:31:15;15.00;;;8.60;;
21786;SDS011;11055;50.870;4.316;2023-05-19T07:33:41;14.65;;;9.60;;
21786;SDS011;11055;50.870;4.316;2023-05-19T07:36:07;14.50;;;10.40;;
21786;SDS011;11055;50.870;4.316;2023-05-19T07:38:33;16.42;;;9.73;;
21786;SDS011;11055;50.870;4.316;2023-05-19T07:40:59;15.15;;;9.48;;
21786;SDS011;11055;50.870;4.316;2023-05-19T07:43:25;17.38;;;9.30;;
21786;SDS011;11055;50.870;4.316;2023-05-19T07:45:51;14.20;;;9.20;;
21786;SDS011;11055;50.870;4.316;2023-05-19T07:48:17;13.10;;;8.63;;
21786;SDS011;11055;50.870;4.316;2023-05-19T07:50:46;12.32;;;8.65;;
21786;SDS011;11055;50.870;4.316;2023-05-19T07:53:12;15.13;;;9.00;;
21786;SDS011;11055;50.870;4.316;2023-05-19T07:55:38;11.80;;;8.95;;
21786;SDS011;11055;50.870;4.316;2023-05-19T07:58:04;15.57;;;9.02;;
21786;SDS011;11055;50.870;4.316;2023-05-19T08:00:30;13.20;;;8.35;;
21786;SDS011;11055;50.870;4.316;2023-05-19T08:02:55;12.98;;;8.68;;
21786;SDS011;11055;50.870;4.316;2023-05-19T08:05:21;14.07;;;8.60;;
21786;SDS011;11055;50.870;4.316;2023-05-19T08:07:47;12.35;;;7.97;;
21786;SDS011;11055;50.870;4.316;2023-05-19T08:10:13;14.98;;;8.35;;
21786;SDS011;11055;50.870;4.316;2023-05-19T08:12:38;13.52;;;9.00;;
21786;SDS011;11055;50.870;4.316;2023-05-19T08:15:05;11.60;;;7.40;;
21786;SDS011;11055;50.870;4.316;2023-05-19T08:17:31;15.43;;;8.00;;
21786;SDS011;11055;50.870;4.316;2023-05-19T08:19:57;11.70;;;7.57;;
21786;SDS011;11055;50.870;4.316;2023-05-19T08:22:24;11.65;;;8.20;;
21786;SDS011;11055;50.870;4.316;2023-05-19T08:24:49;11.45;;;7.32;;
21786;SDS011;11055;50.870;4.316;2023-05-19T08:27:15;14.63;;;8.02;;
21786;SDS011;11055;50.870;4.316;2023-05-19T08:29:41;11.85;;;7.85;;
21786;SDS011;11055;50.870;4.316;2023-05-19T08:32:07;11.10;;;6.97;;
21786;SDS011;11055;50.870;4.316;2023-05-19T08:34:33;14.55;;;8.02;;
21786;SDS011;11055;50.870;4.316;2023-05-19T08:36:59;12.60;;;8.18;;
21786;SDS011;11055;50.870;4.316;2023-05-19T08:39:24;11.80;;;7.32;;
21786;SDS011;11055;50.870;4.316;2023-05-19T08:41:51;9.43;;;6.45;;
21786;SDS011;11055;50.870;4.316;2023-05-19T08:44:18;10.10;;;6.15;;
21786;SDS011;11055;50.870;4.316;2023-05-19T08:46:43;14.50;;;7.13;;
21786;SDS011;11055;50.870;4.316;2023-05-19T08:49:12;8.05;;;5.45;;
21786;SDS011;11055;50.870;4.316;2023-05-19T08:54:29;13.80;;;7.00;;
21786;SDS011;11055;50.870;4.316;2023-05-19T08:57:00;9.35;;;6.15;;
21786;SDS011;11055;50.870;4.316;2023-05-19T08:59:26;12.65;;;5.43;;
21786;SDS011;11055;50.870;4.316;2023-05-19T09:01:52;10.85;;;5.45;;
21786;SDS011;11055;50.870;4.316;2023-05-19T09:04:19;11.13;;;5.97;;
21786;SDS011;11055;50.870;4.316;2023-05-19T09:06:45;10.32;;;5.68;;
21786;SDS011;11055;50.870;4.316;2023-05-19T09:09:10;11.45;;;5.18;;
21786;SDS011;11055;50.870;4.316;2023-05-19T09:11:36;8.75;;;4.97;;
21786;SDS011;11055;50.870;4.316;2023-05-19T09:14:03;7.20;;;4.70;;
21786;SDS011;11055;50.870;4.316;2023-05-19T09:16:29;11.00;;;4.65;;
21786;SDS011;11055;50.870;4.316;2023-05-19T09:18:58;10.95;;;5.43;;
21786;SDS011;11055;50.870;4.316;2023-05-19T09:21:28;9.67;;;4.73;;
21786;SDS011;11055;50.870;4.316;2023-05-19T09:23:56;9.55;;;3.90;;
21786;SDS011;11055;50.870;4.316;2023-05-19T09:26:37;7.72;;;4.50;;
21786;SDS011;11055;50.870;4.316;2023-05-19T09:29:10;8.95;;;4.38;;
21786;SDS011;11055;50.870;4.316;2023-05-19T09:31:36;7.45;;;4.20;;
21786;SDS011;11055;50.870;4.316;2023-05-19T09:34:02;9.00;;;4.28;;
21786;SDS011;11055;50.870;4.316;2023-05-19T09:36:28;10.55;;;4.25;;
21786;SDS011;11055;50.870;4.316;2023-05-19T09:38:55;7.45;;;4.07;;
21786;SDS011;11055;50.870;4.316;2023-05-19T09:41:20;10.25;;;3.97;;
21786;SDS011;11055;50.870;4.316;2023-05-19T09:43:53;9.52;;;4.22;;
21786;SDS011;11055;50.870;4.316;2023-05-19T09:46:23;11.48;;;4.22;;
21786;SDS011;11055;50.870;4.316;2023-05-19T09:48:55;7.88;;;4.15;;
21786;SDS011;11055;50.870;4.316;2023-05-19T09:51:22;10.67;;;5.90;;
21786;SDS011;11055;50.870;4.316;2023-05-19T09:53:49;5.45;;;4.15;;
21786;SDS011;11055;50.870;4.316;2023-05-19T09:56:14;8.63;;;4.25;;
21786;SDS011;11055;50.870;4.316;2023-05-19T09:58:40;9.02;;;3.80;;
21786;SDS011;11055;50.870;4.316;2023-05-19T10:01:06;8.43;;;4.25;;
21786;SDS011;11055;50.870;4.316;2023-05-19T10:03:33;6.80;;;3.97;;
21786;SDS011;11055;50.870;4.316;2023-05-19T10:06:00;9.30;;;3.55;;
21786;SDS011;11055;50.870;4.316;2023-05-19T10:08:27;9.68;;;3.08;;
21786;SDS011;11055;50.870;4.316;2023-05-19T10:10:54;8.48;;;3.08;;
21786;SDS011;11055;50.870;4.316;2023-05-19T10:13:20;7.93;;;3.17;;
21786;SDS011;11055;50.870;4.316;2023-05-19T10:15:48;5.85;;;3.40;;
21786;SDS011;11055;50.870;4.316;2023-05-19T10:18:16;8.00;;;2.83;;
21786;SDS011;11055;50.870;4.316;2023-05-19T10:20:42;8.63;;;3.33;;
21786;SDS011;11055;50.870;4.316;2023-05-19T10:23:08;8.20;;;3.25;;
21786;SDS011;11055;50.870;4.316;2023-05-19T10:25:34;10.18;;;3.53;;
21786;SDS011;11055;50.870;4.316;2023-05-19T10:28:06;5.32;;;3.08;;
21786;SDS011;11055;50.870;4.316;2023-05-19T10:30:39;6.70;;;3.20;;
21786;SDS011;11055;50.870;4.316;2023-05-19T10:33:08;9.18;;;3.45;;
21786;SDS011;11055;50.870;4.316;2023-05-19T10:43:57;5.75;;;2.92;;
21786;SDS011;11055;50.870;4.316;2023-05-19T10:46:33;6.57;;;3.25;;
21786;SDS011;11055;50.870;4.316;2023-05-19T10:48:59;6.40;;;3.22;;
21786;SDS011;11055;50.870;4.316;2023-05-19T10:51:31;7.93;;;4.05;;
21786;SDS011;11055;50.870;4.316;2023-05-19T10:53:57;8.88;;;3.60;;
21786;SDS011;11055;50.870;4.316;2023-05-19T10:56:27;8.77;;;3.40;;
21786;SDS011;11055;50.870;4.316;2023-05-19T10:58:55;9.40;;;3.42;;
21786;SDS011;11055;50.870;4.316;2023-05-19T11:01:21;10.55;;;3.63;;
21786;SDS011;11055;50.870;4.316;2023-05-19T11:06:16;8.95;;;4.72;;
21786;SDS011;11055;50.870;4.316;2023-05-19T11:09:10;8.10;;;4.22;;
21786;SDS011;11055;50.870;4.316;2023-05-19T11:14:19;6.95;;;3.40;;
21786;SDS011;11055;50.870;4.316;2023-05-19T11:16:48;7.40;;;3.47;;
21786;SDS011;11055;50.870;4.316;2023-05-19T11:19:17;8.75;;;3.88;;
21786;SDS011;11055;50.870;4.316;2023-05-19T11:21:50;15.32;;;6.25;;
21786;SDS011;11055;50.870;4.316;2023-05-19T11:29:46;7.55;;;3.65;;
21786;SDS011;11055;50.870;4.316;2023-05-19T11:32:12;7.63;;;3.55;;
21786;SDS011;11055;50.870;4.316;2023-05-19T11:34:39;7.40;;;3.50;;
21786;SDS011;11055;50.870;4.316;2023-05-19T11:37:06;9.23;;;4.10;;
21786;SDS011;11055;50.870;4.316;2023-05-19T11:39:32;7.18;;;3.75;;
21786;SDS011;11055;50.870;4.316;2023-05-19T11:41:58;8.27;;;3.20;;
21786;SDS011;11055;50.870;4.316;2023-05-19T11:44:24;9.95;;;3.40;;
21786;SDS011;11055;50.870;4.316;2023-05-19T11:46:50;8.00;;;3.70;;
21786;SDS011;11055;50.870;4.316;2023-05-19T11:49:16;9.77;;;3.42;;
21786;SDS011;11055;50.870;4.316;2023-05-19T11:51:42;6.95;;;3.60;;
21786;SDS011;11055;50.870;4.316;2023-05-19T11:54:11;6.97;;;3.50;;
21786;SDS011;11055;50.870;4.316;2023-05-19T11:56:41;6.85;;;3.45;;
21786;SDS011;11055;50.870;4.316;2023-05-19T11:59:07;6.90;;;3.30;;
21786;SDS011;11055;50.870;4.316;2023-05-19T12:01:33;9.48;;;3.80;;
21786;SDS011;11055;50.870;4.316;2023-05-19T12:04:00;6.90;;;3.90;;
21786;SDS011;11055;50.870;4.316;2023-05-19T12:06:26;9.18;;;3.13;;
21786;SDS011;11055;50.870;4.316;2023-05-19T12:08:53;8.70;;;3.58;;
21786;SDS011;11055;50.870;4.316;2023-05-19T12:11:19;9.15;;;3.38;;
21786;SDS011;11055;50.870;4.316;2023-05-19T12:13:46;8.40;;;3.70;;
21786;SDS011;11055;50.870;4.316;2023-05-19T12:16:12;9.52;;;4.07;;
21786;SDS011;11055;50.870;4.316;2023-05-19T12:18:38;10.73;;;4.70;;
21786;SDS011;11055;50.870;4.316;2023-05-19T12:21:04;10.95;;;3.60;;
21786;SDS011;11055;50.870;4.316;2023-05-19T12:23:31;10.35;;;3.85;;
21786;SDS011;11055;50.870;4.316;2023-05-19T12:25:58;8.23;;;3.00;;
21786;SDS011;11055;50.870;4.316;2023-05-19T12:28:25;8.07;;;3.22;;
21786;SDS011;11055;50.870;4.316;2023-05-19T12:30:53;7.72;;;3.25;;
21786;SDS011;11055;50.870;4.316;2023-05-19T12:33:22;7.63;;;3.75;;
21786;SDS011;11055;50.870;4.316;2023-05-19T12:35:49;8.18;;;3.60;;
21786;SDS011;11055;50.870;4.316;2023-05-19T12:38:15;6.25;;;3.33;;
21786;SDS011;11055;50.870;4.316;2023-05-19T12:40:41;6.03;;;3.67;;
21786;SDS011;11055;50.870;4.316;2023-05-19T12:43:17;7.25;;;3.50;;
21786;SDS011;11055;50.870;4.316;2023-05-19T12:45:44;8.65;;;3.03;;
21786;SDS011;11055;50.870;4.316;2023-05-19T12:48:10;8.98;;;3.20;;
21786;SDS011;11055;50.870;4.316;2023-05-19T12:50:36;7.82;;;3.47;;
21786;SDS011;11055;50.870;4.316;2023-05-19T12:53:02;5.68;;;2.78;;
21786;SDS011;11055;50.870;4.316;2023-05-19T12:55:35;10.23;;;3.15;;
21786;SDS011;11055;50.870;4.316;2023-05-19T12:58:05;11.20;;;3.50;;
21786;SDS011;11055;50.870;4.316;2023-05-19T13:00:31;8.45;;;3.70;;
21786;SDS011;11055;50.870;4.316;2023-05-19T13:02:58;6.03;;;2.50;;
21786;SDS011;11055;50.870;4.316;2023-05-19T13:05:29;6.90;;;3.10;;
21786;SDS011;11055;50.870;4.316;2023-05-19T13:08:01;8.23;;;3.47;;
21786;SDS011;11055;50.870;4.316;2023-05-19T13:10:29;4.82;;;3.10;;
21786;SDS011;11055;50.870;4.316;2023-05-19T13:12:56;7.00;;;3.05;;
21786;SDS011;11055;50.870;4.316;2023-05-19T13:15:23;9.18;;;2.80;;
21786;SDS011;11055;50.870;4.316;2023-05-19T13:17:50;8.45;;;2.72;;
21786;SDS011;11055;50.870;4.316;2023-05-19T13:20:17;7.20;;;2.35;;
21786;SDS011;11055;50.870;4.316;2023-05-19T13:22:43;5.85;;;2.50;;
21786;SDS011;11055;50.870;4.316;2023-05-19T13:25:09;8.13;;;2.90;;
21786;SDS011;11055;50.870;4.316;2023-05-19T13:27:35;5.05;;;2.72;;
21786;SDS011;11055;50.870;4.316;2023-05-19T13:30:01;5.78;;;2.80;;
21786;SDS011;11055;50.870;4.316;2023-05-19T13:32:28;8.10;;;2.75;;
21786;SDS011;11055;50.870;4.316;2023-05-19T13:34:54;9.07;;;2.75;;
21786;SDS011;11055;50.870;4.316;2023-05-19T13:37:20;5.40;;;2.58;;
21786;SDS011;11055;50.870;4.316;2023-05-19T13:39:45;4.30;;;2.47;;
21786;SDS011;11055;50.870;4.316;2023-05-19T13:42:14;4.28;;;2.53;;
21786;SDS011;11055;50.870;4.316;2023-05-19T13:44:41;6.55;;;2.53;;
21786;SDS011;11055;50.870;4.316;2023-05-19T13:47:07;6.40;;;2.80;;
21786;SDS011;11055;50.870;4.316;2023-05-19T13:49:33;6.38;;;2.65;;
21786;SDS011;11055;50.870;4.316;2023-05-19T13:51:59;7.53;;;2.80;;
21786;SDS011;11055;50.870;4.316;2023-05-19T13:54:24;8.00;;;2.75;;
21786;SDS011;11055;50.870;4.316;2023-05-19T13:56:50;5.30;;;2.63;;
21786;SDS011;11055;50.870;4.316;2023-05-19T13:59:16;5.30;;;2.50;;
21786;SDS011;11055;50.870;4.316;2023-05-19T14:01:42;6.28;;;2.42;;
21786;SDS011;11055;50.870;4.316;2023-05-19T14:04:09;9.23;;;2.78;;
21786;SDS011;11055;50.870;4.316;2023-05-19T14:06:35;6.68;;;2.90;;
21786;SDS011;11055;50.870;4.316;2023-05-19T14:09:04;4.60;;;2.63;;
21786;SDS011;11055;50.870;4.316;2023-05-19T14:11:30;5.15;;;2.92;;
21786;SDS011;11055;50.870;4.316;2023-05-19T14:13:56;7.22;;;2.78;;
21786;SDS011;11055;50.870;4.316;2023-05-19T14:16:21;8.85;;;3.10;;
21786;SDS011;11055;50.870;4.316;2023-05-19T14:18:47;6.03;;;2.58;;
21786;SDS011;11055;50.870;4.316;2023-05-19T14:21:13;6.40;;;2.75;;
21786;SDS011;11055;50.870;4.316;2023-05-19T14:23:39;5.85;;;2.38;;
21786;SDS011;11055;50.870;4.316;2023-05-19T14:26:05;8.73;;;3.55;;
21786;SDS011;11055;50.870;4.316;2023-05-19T14:28:31;8.48;;;3.22;;
21786;SDS011;11055;50.870;4.316;2023-05-19T14:30:57;6.90;;;2.55;;
21786;SDS011;11055;50.870;4.316;2023-05-19T14:33:22;3.95;;;2.40;;
21786;SDS011;11055;50.870;4.316;2023-05-19T14:35:48;5.70;;;2.78;;
21786;SDS011;11055;50.870;4.316;2023-05-19T14:38:14;8.25;;;2.67;;
21786;SDS011;11055;50.870;4.316;2023-05-19T14:40:39;6.00;;;2.60;;
21786;SDS011;11055;50.870;4.316;2023-05-19T14:43:08;5.20;;;2.55;;
21786;SDS011;11055;50.870;4.316;2023-05-19T14:45:35;7.18;;;2.90;;
21786;SDS011;11055;50.870;4.316;2023-05-19T14:48:02;7.18;;;2.83;;
21786;SDS011;11055;50.870;4.316;2023-05-19T14:50:27;5.38;;;2.72;;
21786;SDS011;11055;50.870;4.316;2023-05-19T14:52:53;6.03;;;2.80;;
21786;SDS011;11055;50.870;4.316;2023-05-19T14:55:18;7.97;;;2.88;;
21786;SDS011;11055;50.870;4.316;2023-05-19T14:57:44;8.02;;;3.30;;
21786;SDS011;11055;50.870;4.316;2023-05-19T15:00:10;6.15;;;2.85;;
21786;SDS011;11055;50.870;4.316;2023-05-19T15:02:36;6.65;;;2.75;;
21786;SDS011;11055;50.870;4.316;2023-05-19T15:05:02;6.22;;;3.00;;
21786;SDS011;11055;50.870;4.316;2023-05-19T15:07:28;5.43;;;2.55;;
21786;SDS011;11055;50.870;4.316;2023-05-19T15:09:54;6.35;;;2.40;;
21786;SDS011;11055;50.870;4.316;2023-05-19T15:12:20;6.07;;;2.88;;
21786;SDS011;11055;50.870;4.316;2023-05-19T15:14:46;4.20;;;2.40;;
21786;SDS011;11055;50.870;4.316;2023-05-19T15:17:12;4.95;;;2.95;;
21786;SDS011;11055;50.870;4.316;2023-05-19T15:19:38;6.65;;;2.72;;